createdAt,value
2023-03-20T00:04:04.456Z,101905.16
2023-03-20T00:09:08.348Z,101904.47
2023-03-20T00:14:16.891Z,101901.47
2023-03-20T00:19:23.268Z,101878.66
2023-03-20T00:24:27.139Z,101875.94
2023-03-20T00:29:34.472Z,101865.19
2023-03-20T00:34:38.271Z,101859.81
2023-03-20T00:39:42.613Z,101853.81
2023-03-20T00:44:53.216Z,101857.03
2023-03-20T00:50:00.798Z,101875.50
2023-03-20T00:55:04.834Z,101892.56
2023-03-20T01:00:22.347Z,101903.56
2023-03-20T01:05:29.121Z,101909.28
2023-03-20T01:10:34.245Z,101896.41
2023-03-20T01:15:39.281Z,101870.91
2023-03-20T01:20:44.285Z,101882.66
2023-03-20T01:25:48.014Z,101896.88
2023-03-20T01:30:53.170Z,101890.69
2023-03-20T01:35:59.472Z,101862.84
2023-03-20T01:41:08.496Z,101852.56
2023-03-20T01:46:24.260Z,101865.56
2023-03-20T01:51:31.007Z,101862.84
2023-03-20T01:56:42.767Z,101873.81
2023-03-20T02:01:48.725Z,101884.78
2023-03-20T02:06:54.527Z,101915.88
2023-03-20T02:11:59.995Z,101908.72
2023-03-20T02:17:09.868Z,101906.38
2023-03-20T02:22:54.187Z,101899.53
2023-03-20T02:28:34.940Z,101887.03
2023-03-20T02:34:09.911Z,101875.59
2023-03-20T02:39:53.672Z,101870.22
2023-03-20T02:45:09.236Z,101877.59
2023-03-20T02:50:20.512Z,101881.59
2023-03-20T02:55:34.251Z,101857.69
2023-03-20T03:00:47.546Z,101847.37
2023-03-20T03:05:58.105Z,101856.00
2023-03-20T03:11:07.381Z,101838.31
2023-03-20T03:16:15.736Z,101844.56
2023-03-20T03:21:23.633Z,101855.22
2023-03-20T03:26:33.364Z,101846.03
2023-03-20T03:31:39.229Z,101835.19
2023-03-20T03:36:49.838Z,101837.09
2023-03-20T03:41:58.424Z,101822.34
2023-03-20T03:47:08.773Z,101829.00
2023-03-20T03:52:17.631Z,101827.34
2023-03-20T03:57:28.189Z,101832.84
2023-03-20T04:02:32.402Z,101826.91
2023-03-20T04:07:36.545Z,101825.09
2023-03-20T04:12:42.936Z,101807.22
2023-03-20T04:17:47.052Z,101811.69
2023-03-20T04:22:50.879Z,101802.84
2023-03-20T04:27:56.372Z,101804.88
2023-03-20T04:33:00.964Z,101803.97
2023-03-20T04:38:05.558Z,101796.78
2023-03-20T04:43:11.344Z,101782.53
2023-03-20T04:48:15.361Z,101786.41
2023-03-20T04:53:19.519Z,101787.88
2023-03-20T04:58:27.825Z,101785.19
2023-03-20T05:03:31.729Z,101784.75
2023-03-20T05:08:36.764Z,101794.03
2023-03-20T05:13:43.553Z,101784.28
2023-03-20T05:18:49.444Z,101778.81
2023-03-20T05:23:53.484Z,101785.84
2023-03-20T05:28:59.838Z,101779.16
2023-03-20T05:34:05.324Z,101771.44
2023-03-20T05:39:11.641Z,101762.63
2023-03-20T05:44:17.335Z,101771.31
2023-03-20T05:49:21.595Z,101767.06
2023-03-20T05:54:26.174Z,101780.50
2023-03-20T05:59:31.786Z,101782.53
2023-03-20T06:04:37.342Z,101795.69
2023-03-20T06:09:42.380Z,101805.53
2023-03-20T06:14:48.079Z,101802.19
2023-03-20T06:19:52.073Z,101805.78
2023-03-20T06:24:57.266Z,101815.63
2023-03-20T06:30:06.360Z,101817.19
2023-03-20T06:35:12.115Z,101817.38
2023-03-20T06:40:19.191Z,101826.47
2023-03-20T06:45:24.403Z,101827.47
2023-03-20T06:50:28.500Z,101833.19
2023-03-20T06:55:34.618Z,101843.47
2023-03-20T07:00:40.000Z,101847.28
2023-03-20T07:05:44.883Z,101851.94
2023-03-20T07:10:48.892Z,101858.34
2023-03-20T07:16:04.113Z,101848.53
2023-03-20T07:21:09.179Z,101864.94
2023-03-20T07:26:14.191Z,101866.41
2023-03-20T07:31:22.973Z,101868.44
2023-03-20T07:36:28.552Z,101865.62
2023-03-20T07:41:32.293Z,101867.91
2023-03-20T07:46:38.019Z,101872.03
2023-03-20T07:51:42.817Z,101862.66
2023-03-20T07:56:46.899Z,101863.75
2023-03-20T08:01:52.253Z,101864.41
2023-03-20T08:06:56.139Z,101864.97
2023-03-20T08:12:00.147Z,101855.25
2023-03-20T08:17:14.577Z,101855.81
2023-03-20T08:22:19.738Z,101853.44
2023-03-20T08:27:23.408Z,101860.41
2023-03-20T08:32:28.534Z,101865.78
2023-03-20T08:37:32.352Z,101874.25
2023-03-20T08:42:36.026Z,101877.97
2023-03-20T08:47:41.079Z,101875.72
2023-03-20T08:52:47.064Z,101874.84
2023-03-20T08:57:50.923Z,101875.19
2023-03-20T09:02:56.215Z,101878.38
2023-03-20T09:08:01.518Z,101881.41
2023-03-20T09:13:23.762Z,101880.44
2023-03-20T09:18:30.797Z,101884.31
2023-03-20T09:23:34.545Z,101895.28
2023-03-20T09:28:38.293Z,101891.47
2023-03-20T09:33:43.384Z,101887.50
2023-03-20T09:38:47.054Z,101885.13
2023-03-20T09:44:13.752Z,101873.34
2023-03-20T09:49:29.838Z,101879.66
2023-03-20T09:54:53.228Z,101875.19
2023-03-20T10:00:02.870Z,101883.53
2023-03-20T10:05:26.054Z,101868.91
2023-03-20T10:10:43.476Z,101869.56
2023-03-20T10:15:53.796Z,101861.63
2023-03-20T10:21:04.732Z,101859.81
2023-03-20T10:26:12.793Z,101862.34
2023-03-20T10:31:32.789Z,101858.38
2023-03-20T10:36:57.816Z,101863.03
2023-03-20T10:42:04.725Z,101860.97
2023-03-20T10:47:12.986Z,101863.06
2023-03-20T10:52:21.682Z,101851.09
2023-03-20T10:57:27.672Z,101834.78
2023-03-20T11:02:33.129Z,101840.69
2023-03-20T11:07:39.032Z,101842.50
2023-03-20T11:12:45.378Z,101839.53
2023-03-20T11:17:56.917Z,101822.16
2023-03-20T11:23:05.566Z,101821.69
2023-03-20T11:28:26.755Z,101809.94
2023-03-20T11:33:31.213Z,101805.03
2023-03-20T11:38:43.721Z,101799.87
2023-03-20T11:43:47.655Z,101788.16
2023-03-20T11:49:08.466Z,101783.41
2023-03-20T11:54:18.211Z,101791.16
2023-03-20T11:59:22.720Z,101780.84
2023-03-20T12:04:31.147Z,101776.72
2023-03-20T12:09:40.869Z,101768.84
2023-03-20T12:14:54.407Z,101785.28
2023-03-20T12:20:03.646Z,101777.13
2023-03-20T12:25:20.666Z,101768.47
2023-03-20T12:30:33.155Z,101757.94
2023-03-20T12:35:41.973Z,101757.75
2023-03-20T12:40:47.546Z,101751.25
2023-03-20T12:45:57.230Z,101749.22
2023-03-20T12:51:06.706Z,101742.47
2023-03-20T12:56:28.366Z,101734.72
2023-03-20T13:01:34.117Z,101728.94
2023-03-20T13:06:46.395Z,101727.41
2023-03-20T13:12:01.036Z,101720.41
2023-03-20T13:17:12.746Z,101713.34
2023-03-20T13:22:24.141Z,101715.41
2023-03-20T13:27:38.258Z,101720.81
2023-03-20T13:32:55.025Z,101720.00
2023-03-20T13:38:03.210Z,101722.97
2023-03-20T13:43:20.369Z,101707.28
2023-03-20T13:48:31.335Z,101708.75
2023-03-20T13:53:45.878Z,101703.00
2023-03-20T13:59:03.656Z,101711.63
2023-03-20T14:04:15.490Z,101700.12
2023-03-20T14:09:30.768Z,101708.63
2023-03-20T14:14:42.969Z,101698.53
2023-03-20T14:19:47.814Z,101698.03
2023-03-20T14:24:58.644Z,101692.78
2023-03-20T14:30:40.735Z,101686.91
2023-03-20T14:35:46.503Z,101675.41
2023-03-20T14:41:01.170Z,101674.69
2023-03-20T14:46:09.838Z,101670.03
2023-03-20T14:51:23.291Z,101662.41
2023-03-20T14:56:30.666Z,101659.38
2023-03-20T15:01:57.568Z,101659.34
2023-03-20T15:07:04.419Z,101660.63
2023-03-20T15:12:08.635Z,101656.34
2023-03-20T15:17:21.467Z,101659.22
2023-03-20T15:22:25.375Z,101646.28
2023-03-20T15:27:30.664Z,101639.97
2023-03-20T15:32:36.913Z,101634.63
2023-03-20T15:37:47.312Z,101635.31
2023-03-20T15:42:55.401Z,101637.66
2023-03-20T15:48:07.152Z,101630.16
2023-03-20T15:53:18.009Z,101635.06
2023-03-20T15:58:21.762Z,101634.09
2023-03-20T16:03:29.115Z,101630.06
2023-03-20T16:08:34.731Z,101628.62
2023-03-20T16:13:41.160Z,101626.75
2023-03-20T16:18:48.020Z,101626.59
2023-03-20T16:23:57.279Z,101633.19
2023-03-20T16:29:03.104Z,101628.75
2023-03-20T16:34:10.913Z,101629.78
2023-03-20T16:39:21.939Z,101621.62
2023-03-20T16:44:31.548Z,101612.13
2023-03-20T16:50:10.730Z,101625.22
2023-03-20T16:55:17.598Z,101621.31
2023-03-20T17:00:25.297Z,101620.34
2023-03-20T17:05:46.012Z,101621.94
2023-03-20T17:10:52.116Z,101615.81
2023-03-20T17:15:56.338Z,101605.81
2023-03-20T17:21:01.437Z,101609.28
2023-03-20T17:26:05.591Z,101618.12
2023-03-20T17:31:13.204Z,101621.50
2023-03-20T17:36:22.040Z,101621.69
2023-03-20T17:41:26.584Z,101625.78
2023-03-20T17:46:36.090Z,101629.63
2023-03-20T17:51:48.116Z,101627.75
2023-03-20T17:56:51.972Z,101631.06
2023-03-20T18:01:56.597Z,101630.34
2023-03-20T18:07:02.427Z,101632.31
2023-03-20T18:12:06.594Z,101627.13
2023-03-20T18:17:13.503Z,101635.69
2023-03-20T18:22:18.721Z,101630.50
2023-03-20T18:27:22.732Z,101629.44
2023-03-20T18:32:26.493Z,101634.69
2023-03-20T18:37:31.523Z,101642.72
2023-03-20T18:42:35.610Z,101645.75
2023-03-20T18:47:39.320Z,101645.41
2023-03-20T18:52:44.848Z,101642.81
2023-03-20T18:57:48.647Z,101643.53
2023-03-20T19:02:54.651Z,101646.50
2023-03-20T19:08:00.124Z,101646.19
2023-03-20T19:13:05.634Z,101656.25
2023-03-20T19:18:15.520Z,101655.25
2023-03-20T19:23:21.404Z,101657.13
2023-03-20T19:28:38.801Z,101648.88
2023-03-20T19:33:44.477Z,101658.84
2023-03-20T19:38:49.586Z,101651.44
2023-03-20T19:43:55.492Z,101651.66
2023-03-20T19:49:00.024Z,101637.53
2023-03-20T19:54:05.524Z,101635.12
2023-03-20T19:59:09.243Z,101630.78
2023-03-20T20:04:12.928Z,101626.06
2023-03-20T20:09:18.732Z,101634.78
2023-03-20T20:14:23.873Z,101615.09
2023-03-20T20:19:28.476Z,101617.31
2023-03-20T20:24:34.014Z,101617.69
2023-03-20T20:29:37.845Z,101614.13
2023-03-20T20:40:10.184Z,101605.47
2023-03-20T20:45:15.311Z,101615.00
2023-03-20T20:50:21.454Z,101610.19
2023-03-20T20:55:27.590Z,101613.41
2023-03-20T21:00:47.263Z,101613.41
2023-03-20T21:05:52.590Z,101609.47
2023-03-20T21:10:57.653Z,101601.09
2023-03-20T21:16:01.740Z,101598.88
2023-03-20T21:21:06.724Z,101594.69
2023-03-20T21:26:12.056Z,101606.81
2023-03-20T21:31:26.767Z,101611.53
2023-03-20T21:36:31.849Z,101609.13
2023-03-20T21:41:37.733Z,101608.03
2023-03-20T21:47:10.425Z,101610.00
2023-03-20T21:58:23.908Z,101599.66
2023-03-20T22:02:58.921Z,101617.94
2023-03-20T22:14:28.560Z,101625.34
2023-03-20T22:25:02.352Z,101618.75
2023-03-20T22:41:27.437Z,101609.28
2023-03-20T22:46:16.889Z,101612.56
2023-03-20T22:51:28.703Z,101612.72
2023-03-20T22:56:36.417Z,101609.81
2023-03-20T23:01:41.640Z,101604.72
2023-03-20T23:06:45.433Z,101607.75
2023-03-20T23:11:49.251Z,101600.38
2023-03-20T23:16:54.353Z,101593.84
2023-03-20T23:21:58.187Z,101596.81
2023-03-20T23:27:02.003Z,101590.38
2023-03-20T23:32:07.558Z,101586.72
2023-03-20T23:37:11.262Z,101582.16
2023-03-20T23:42:29.725Z,101581.41
2023-03-20T23:47:44.396Z,101579.06
2023-03-20T23:52:57.201Z,101575.41
2023-03-20T23:58:05.020Z,101577.13
